EBDT

Schaffen Airport

Diest, Belgium
METAR EBDT 250025Z AUTO 23007KT 9999 FEW024/// BKN060/// BKN150/// 14/10 Q1010 BLU
Observed Flight Rules
Apr-25 @ 00:25 UTC (27 minutes ago) Visual Flight Rules
Wind Visibility Clouds
230° at 7 knots 10,000+ meters
  • Few at 2,400' AGL
  • Broken at 6,000' AGL
  • Broken at 15,000' AGL
Temperatures Readings
Current 14°C / 57°F
Dewpoint 10°C / 50°F
Humidity 77%
Altimeter 29.82" Hg
Pressure 1010 hPa
Elevation 54
METAR EBDT 250025Z AUTO 23007KT 9999 FEW024/// BKN060/// BKN150/// 14/10 Q1010 BLU
Observed Flight Rules
Apr-25 @ 00:25 UTC
(27 minutes ago)
VFR
Wind Visibility
230° at 7 knots 10,000+ meters
Clouds
  • Few at 2,400' AGL
  • Broken at 6,000' AGL
  • Broken at 15,000' AGL
Temperature Dewpoint
14°C / 57°F 10°C / 50°F
Humidity Altimeter Pressure
77% 29.82" Hg 1010 hPa